createdAt,value
2022-10-28T00:01:30.255Z,98560.66
2022-10-28T00:04:01.144Z,98561.66
2022-10-28T00:06:35.787Z,98567.13
2022-10-28T00:09:08.139Z,98565.47
2022-10-28T00:11:39.583Z,98561.22
2022-10-28T00:14:08.784Z,98553.38
2022-10-28T00:16:38.473Z,98553.38
2022-10-28T00:19:08.913Z,98556.19
2022-10-28T00:21:40.573Z,98554.53
2022-10-28T00:24:11.203Z,98555.66
2022-10-28T00:26:42.251Z,98560.13
2022-10-28T00:29:13.331Z,98552.28
2022-10-28T00:31:42.353Z,98548.09
2022-10-28T00:34:15.302Z,98550.03
2022-10-28T00:36:47.152Z,98551.19
2022-10-28T00:39:17.621Z,98546.81
2022-10-28T00:41:48.738Z,98543.34
2022-10-28T00:44:54.373Z,98532.13
2022-10-28T00:47:34.681Z,98531.53
2022-10-28T00:50:37.013Z,98531.00
2022-10-28T00:53:12.733Z,98530.31
2022-10-28T00:55:41.417Z,98519.78
2022-10-28T00:58:10.518Z,98524.28
2022-10-28T01:00:38.885Z,98524.28
2022-10-28T01:03:07.163Z,98518.97
2022-10-28T01:05:38.836Z,98524.44
2022-10-28T01:08:08.696Z,98531.72
2022-10-28T01:11:05.073Z,98530.19
2022-10-28T01:13:45.487Z,98525.97
2022-10-28T01:16:29.509Z,98525.28
2022-10-28T01:19:15.846Z,98524.56
2022-10-28T01:22:05.761Z,98523.19
2022-10-28T01:25:12.478Z,98532.25
2022-10-28T01:28:21.919Z,98529.06
2022-10-28T01:31:25.709Z,98530.28
2022-10-28T01:34:00.425Z,98523.44
2022-10-28T01:36:35.689Z,98527.09
2022-10-28T01:39:15.069Z,98525.25
2022-10-28T01:41:53.047Z,98523.72
2022-10-28T01:44:30.073Z,98523.88
2022-10-28T01:47:05.519Z,98524.00
2022-10-28T01:49:42.385Z,98526.81
2022-10-28T01:52:15.258Z,98520.75
2022-10-28T01:54:49.151Z,98528.06
2022-10-28T01:57:19.548Z,98530.72
2022-10-28T01:59:49.770Z,98533.53
2022-10-28T02:02:19.741Z,98534.63
2022-10-28T02:04:47.990Z,98533.81
2022-10-28T02:07:17.711Z,98534.06
2022-10-28T02:10:04.919Z,98528.16
2022-10-28T02:12:36.142Z,98529.00
2022-10-28T02:15:38.175Z,98532.78
2022-10-28T02:18:25.026Z,98525.09
2022-10-28T02:20:57.052Z,98521.72
2022-10-28T02:23:40.587Z,98528.97
2022-10-28T02:26:16.618Z,98533.47
2022-10-28T02:28:56.287Z,98530.09
2022-10-28T02:31:29.348Z,98538.22
2022-10-28T02:34:02.798Z,98535.56
2022-10-28T02:36:36.932Z,98539.34
2022-10-28T02:39:07.287Z,98533.16
2022-10-28T02:41:42.762Z,98529.13
2022-10-28T02:44:15.935Z,98534.56
2022-10-28T02:46:48.936Z,98526.72
2022-10-28T02:49:18.473Z,98522.50
2022-10-28T02:51:52.336Z,98519.97
2022-10-28T02:54:25.886Z,98513.97
2022-10-28T02:57:00.410Z,98525.56
2022-10-28T02:59:30.622Z,98518.56
2022-10-28T03:01:58.970Z,98519.56
2022-10-28T03:04:28.691Z,98517.88
2022-10-28T03:06:56.908Z,98517.19
2022-10-28T03:09:25.290Z,98516.47
2022-10-28T03:11:53.529Z,98527.09
2022-10-28T03:14:21.709Z,98522.75
2022-10-28T03:16:49.925Z,98521.06
2022-10-28T03:19:18.116Z,98525.69
2022-10-28T03:21:47.759Z,98518.72
2022-10-28T03:24:15.933Z,98524.16
2022-10-28T03:26:44.289Z,98510.16
2022-10-28T03:29:12.492Z,98507.63
2022-10-28T03:31:40.774Z,98512.38
2022-10-28T03:34:08.970Z,98515.88
2022-10-28T03:36:37.293Z,98516.00
2022-10-28T03:39:06.958Z,98509.97
2022-10-28T03:41:35.282Z,98517.94
2022-10-28T03:44:03.527Z,98524.25
2022-10-28T03:46:35.062Z,98531.38
2022-10-28T03:49:04.959Z,98521.13
2022-10-28T03:51:33.201Z,98522.97
2022-10-28T03:54:01.552Z,98524.91
2022-10-28T03:56:31.113Z,98523.25
2022-10-28T03:58:59.338Z,98521.53
2022-10-28T04:01:27.715Z,98525.19
2022-10-28T04:03:56.003Z,98526.16
2022-10-28T04:06:24.580Z,98522.66
2022-10-28T04:08:52.801Z,98526.31
2022-10-28T04:11:21.077Z,98526.44
2022-10-28T04:13:50.653Z,98523.91
2022-10-28T04:16:18.908Z,98517.63
2022-10-28T04:18:47.101Z,98520.53
2022-10-28T04:21:15.354Z,98517.88
2022-10-28T04:23:43.583Z,98512.69
2022-10-28T04:26:11.960Z,98508.38
2022-10-28T04:28:40.177Z,98516.34
2022-10-28T04:31:10.141Z,98515.63
2022-10-28T04:33:38.358Z,98513.09
2022-10-28T04:36:07.235Z,98507.78
2022-10-28T04:38:35.470Z,98525.53
2022-10-28T04:41:03.873Z,98515.91
2022-10-28T04:43:32.117Z,98520.34
2022-10-28T04:46:05.839Z,98511.69
2022-10-28T04:48:36.265Z,98512.66
2022-10-28T04:51:05.246Z,98506.53
2022-10-28T04:53:33.487Z,98507.47
2022-10-28T04:56:01.957Z,98507.47
2022-10-28T04:58:30.490Z,98505.81
2022-10-28T05:00:58.874Z,98510.25
2022-10-28T05:03:27.106Z,98509.31
2022-10-28T05:05:56.691Z,98512.78
2022-10-28T05:08:24.993Z,98510.13
2022-10-28T05:10:53.208Z,98509.44
2022-10-28T05:13:21.881Z,98513.09
2022-10-28T05:15:51.585Z,98509.72
2022-10-28T05:18:19.850Z,98509.72
2022-10-28T05:20:52.754Z,98508.03
2022-10-28T05:23:25.768Z,98501.16
2022-10-28T05:25:55.506Z,98505.38
2022-10-28T05:28:23.747Z,98505.50
2022-10-28T05:30:51.954Z,98510.81
2022-10-28T05:33:20.190Z,98508.16
2022-10-28T05:35:48.427Z,98515.28
2022-10-28T05:38:16.923Z,98510.94
2022-10-28T05:40:46.570Z,98509.25
2022-10-28T05:43:14.814Z,98502.41
2022-10-28T05:45:43.123Z,98503.13
2022-10-28T05:48:11.357Z,98516.41
2022-10-28T05:50:39.617Z,98511.91
2022-10-28T05:53:07.833Z,98506.47
2022-10-28T05:55:36.125Z,98505.66
2022-10-28T05:58:05.730Z,98506.59
2022-10-28T06:00:34.212Z,98516.28
2022-10-28T06:03:09.305Z,98522.53
2022-10-28T06:05:37.953Z,98520.59
2022-10-28T06:08:07.022Z,98523.25
2022-10-28T06:10:35.763Z,98525.91
2022-10-28T06:13:04.160Z,98538.19
2022-10-28T06:15:32.523Z,98543.50
2022-10-28T06:18:00.800Z,98559.44
2022-10-28T06:20:29.035Z,98550.53
2022-10-28T06:22:57.359Z,98551.22
2022-10-28T06:25:26.995Z,98545.09
2022-10-28T06:27:56.578Z,98545.91
2022-10-28T06:30:28.967Z,98540.72
2022-10-28T06:32:57.445Z,98547.31
2022-10-28T06:35:25.841Z,98548.88
2022-10-28T06:37:55.252Z,98553.06
2022-10-28T06:40:24.921Z,98546.66
2022-10-28T06:42:58.212Z,98550.75
2022-10-28T06:45:28.607Z,98562.66
2022-10-28T06:47:59.096Z,98560.56
2022-10-28T06:50:28.039Z,98558.47
2022-10-28T06:52:58.119Z,98563.13
2022-10-28T06:55:26.758Z,98555.59
2022-10-28T06:57:55.766Z,98556.72
2022-10-28T07:00:24.436Z,98558.84
2022-10-28T07:02:55.544Z,98564.50
2022-10-28T07:05:26.820Z,98558.75
2022-10-28T07:07:55.418Z,98568.00
2022-10-28T07:10:24.178Z,98579.38
2022-10-28T07:12:54.561Z,98580.38
2022-10-28T07:15:23.147Z,98581.28
2022-10-28T07:17:55.738Z,98581.97
2022-10-28T07:20:26.362Z,98576.53
2022-10-28T07:22:58.038Z,98567.44
2022-10-28T07:25:26.584Z,98577.78
2022-10-28T07:27:55.324Z,98569.69
2022-10-28T07:30:24.149Z,98571.22
2022-10-28T07:32:54.208Z,98567.69
2022-10-28T07:35:22.724Z,98580.69
2022-10-28T07:37:51.027Z,98576.78
2022-10-28T07:40:19.469Z,98588.94
2022-10-28T07:42:47.757Z,98591.16
2022-10-28T07:45:17.494Z,98590.81
2022-10-28T07:47:45.913Z,98597.91
2022-10-28T07:50:15.638Z,98596.28
2022-10-28T07:52:44.488Z,98586.91
2022-10-28T07:55:13.389Z,98584.09
2022-10-28T07:57:41.584Z,98582.44
2022-10-28T08:00:11.267Z,98582.72
2022-10-28T08:02:40.382Z,98580.06
2022-10-28T08:05:09.576Z,98581.03
2022-10-28T08:07:39.254Z,98584.53
2022-10-28T08:10:08.655Z,98591.41
2022-10-28T08:12:36.943Z,98583.50
2022-10-28T08:15:06.567Z,98580.75
2022-10-28T08:17:34.846Z,98580.50
2022-10-28T08:20:03.145Z,98585.75
2022-10-28T08:22:31.453Z,98581.88
2022-10-28T08:25:01.155Z,98576.91
2022-10-28T08:27:29.348Z,98580.78
2022-10-28T08:29:57.611Z,98586.03
2022-10-28T08:32:25.962Z,98577.50
2022-10-28T08:34:54.198Z,98585.38
2022-10-28T08:37:22.550Z,98584.88
2022-10-28T08:39:50.909Z,98580.84
2022-10-28T08:42:36.316Z,98588.69
2022-10-28T08:45:27.072Z,98593.03
2022-10-28T08:48:15.964Z,98586.81
2022-10-28T08:50:50.455Z,98598.38
2022-10-28T08:53:22.834Z,98595.88
2022-10-28T08:55:53.790Z,98593.53
2022-10-28T08:58:27.580Z,98586.78
2022-10-28T09:00:59.938Z,98586.09
2022-10-28T09:03:34.316Z,98578.38
2022-10-28T09:06:07.554Z,98571.44
2022-10-28T09:08:38.827Z,98572.72
2022-10-28T09:12:03.283Z,98571.13
2022-10-28T09:14:49.061Z,98569.03
2022-10-28T09:17:21.111Z,98570.44
2022-10-28T09:19:52.752Z,98568.91
2022-10-28T09:22:26.914Z,98562.72
2022-10-28T09:24:57.778Z,98563.69
2022-10-28T09:27:47.392Z,98568.34
2022-10-28T09:30:33.855Z,98562.06
2022-10-28T09:33:12.832Z,98550.75
2022-10-28T09:35:45.026Z,98547.50
2022-10-28T09:38:22.062Z,98553.31
2022-10-28T09:40:57.432Z,98549.72
2022-10-28T09:43:31.302Z,98539.72
2022-10-28T09:46:07.444Z,98534.09
2022-10-28T09:48:39.580Z,98534.94
2022-10-28T09:51:11.533Z,98537.16
2022-10-28T09:53:47.735Z,98536.28
2022-10-28T09:56:16.723Z,98543.09
2022-10-28T09:58:48.669Z,98545.47
2022-10-28T10:01:19.556Z,98548.03
2022-10-28T10:03:50.698Z,98535.44
2022-10-28T10:06:25.194Z,98540.94
2022-10-28T10:08:55.968Z,98533.50
2022-10-28T10:11:32.642Z,98538.72
2022-10-28T10:14:08.707Z,98537.28
2022-10-28T10:16:44.781Z,98543.09
2022-10-28T10:19:13.334Z,98542.72
2022-10-28T10:21:44.853Z,98542.50
2022-10-28T10:24:30.956Z,98538.16
2022-10-28T10:27:02.030Z,98535.44
2022-10-28T10:29:32.232Z,98536.28
2022-10-28T10:32:17.216Z,98532.94
2022-10-28T10:34:57.931Z,98534.19
2022-10-28T10:37:26.331Z,98533.34
2022-10-28T10:40:06.013Z,98533.09
2022-10-28T10:42:42.525Z,98518.34
2022-10-28T10:45:26.722Z,98515.81
2022-10-28T10:48:15.257Z,98516.22
2022-10-28T10:50:45.721Z,98509.53
2022-10-28T10:53:26.547Z,98505.75
2022-10-28T10:56:01.322Z,98502.81
2022-10-28T10:58:33.589Z,98503.22
2022-10-28T11:01:05.307Z,98497.22
2022-10-28T11:03:38.873Z,98495.91
2022-10-28T11:06:22.954Z,98494.47
2022-10-28T11:08:58.765Z,98492.38
2022-10-28T11:11:34.798Z,98490.91
2022-10-28T11:14:18.257Z,98481.31
2022-10-28T11:16:51.685Z,98479.22
2022-10-28T11:19:25.478Z,98478.59
2022-10-28T11:22:13.075Z,98472.75
2022-10-28T11:25:16.580Z,98482.91
2022-10-28T11:28:01.576Z,98478.75
2022-10-28T11:30:44.733Z,98476.91
2022-10-28T11:33:34.065Z,98473.81
2022-10-28T11:36:17.013Z,98481.31
2022-10-28T11:39:19.972Z,98472.19
2022-10-28T11:42:05.214Z,98473.91
2022-10-28T11:44:46.702Z,98468.94
2022-10-28T11:47:44.597Z,98464.38
2022-10-28T11:50:36.882Z,98449.25
2022-10-28T11:53:37.211Z,98454.47
2022-10-28T11:56:14.085Z,98460.13
2022-10-28T11:58:50.593Z,98450.97
2022-10-28T12:01:40.964Z,98445.78
2022-10-28T12:04:32.191Z,98443.69
2022-10-28T12:07:22.055Z,98449.34
2022-10-28T12:10:20.409Z,98451.22
2022-10-28T12:13:00.593Z,98450.59
2022-10-28T12:15:46.304Z,98440.81
2022-10-28T12:18:25.285Z,98441.88
2022-10-28T12:21:00.838Z,98440.03
2022-10-28T12:23:31.058Z,98424.41
2022-10-28T12:26:02.002Z,98425.06
2022-10-28T12:28:35.291Z,98430.66
2022-10-28T12:31:04.872Z,98430.03
2022-10-28T12:33:41.887Z,98421.28
2022-10-28T12:36:28.220Z,98426.66
2022-10-28T12:39:02.256Z,98422.31
2022-10-28T12:41:51.654Z,98423.09
2022-10-28T12:44:22.747Z,98416.78
2022-10-28T12:47:04.390Z,98422.38
2022-10-28T12:49:45.252Z,98415.84
2022-10-28T12:52:25.514Z,98408.09
2022-10-28T12:55:03.225Z,98407.84
2022-10-28T12:57:36.188Z,98411.97
2022-10-28T13:00:11.107Z,98409.47
2022-10-28T13:02:44.978Z,98410.25
2022-10-28T13:05:30.537Z,98409.06
2022-10-28T13:12:26.108Z,98412.88
2022-10-28T13:15:40.252Z,98404.13
2022-10-28T13:18:46.026Z,98412.50
2022-10-28T13:21:26.222Z,98420.06
2022-10-28T13:24:00.088Z,98419.69
2022-10-28T13:26:31.629Z,98414.06
2022-10-28T13:29:02.737Z,98409.28
2022-10-28T13:31:42.196Z,98409.31
2022-10-28T13:34:12.798Z,98409.72
2022-10-28T13:36:43.372Z,98398.72
2022-10-28T13:39:26.458Z,98399.78
2022-10-28T13:42:45.947Z,98403.56
2022-10-28T13:45:50.153Z,98399.19
2022-10-28T13:48:48.018Z,98400.88
2022-10-28T13:51:46.422Z,98406.06
2022-10-28T13:54:29.963Z,98405.84
2022-10-28T13:57:06.371Z,98402.75
2022-10-28T13:59:53.597Z,98401.13
2022-10-28T14:02:36.263Z,98407.38
2022-10-28T14:05:10.064Z,98394.66
2022-10-28T14:07:41.933Z,98389.06
2022-10-28T14:10:22.773Z,98388.88
2022-10-28T14:12:56.068Z,98386.16
2022-10-28T14:15:28.294Z,98383.84
2022-10-28T14:18:10.492Z,98381.97
2022-10-28T14:21:01.678Z,98373.63
2022-10-28T14:24:10.668Z,98371.16
2022-10-28T14:27:42.579Z,98374.06
2022-10-28T14:30:23.578Z,98381.97
2022-10-28T14:33:01.877Z,98387.16
2022-10-28T14:35:40.750Z,98382.16
2022-10-28T14:39:07.436Z,98387.34
2022-10-28T14:41:52.969Z,98384.44
2022-10-28T14:44:47.582Z,98388.56
2022-10-28T14:47:42.680Z,98380.28
2022-10-28T14:50:20.879Z,98389.59
2022-10-28T14:52:50.998Z,98384.78
2022-10-28T14:55:26.434Z,98391.63
2022-10-28T14:57:56.439Z,98395.78
2022-10-28T15:00:28.984Z,98391.84
2022-10-28T15:02:57.331Z,98394.94
2022-10-28T15:05:32.795Z,98403.88
2022-10-28T15:08:04.642Z,98397.19
2022-10-28T15:10:35.289Z,98395.09
2022-10-28T15:13:04.995Z,98386.78
2022-10-28T15:15:35.802Z,98396.50
2022-10-28T15:18:18.509Z,98386.31
2022-10-28T15:20:46.791Z,98386.50
2022-10-28T15:23:19.799Z,98388.16
2022-10-28T15:26:06.202Z,98387.25
2022-10-28T15:28:35.953Z,98392.22
2022-10-28T15:31:04.198Z,98390.13
2022-10-28T15:33:34.242Z,98386.97
2022-10-28T15:36:17.987Z,98384.22
2022-10-28T15:38:47.950Z,98383.16
2022-10-28T15:41:42.611Z,98381.47
2022-10-28T15:44:28.405Z,98379.56
2022-10-28T15:46:58.442Z,98383.88
2022-10-28T15:49:45.424Z,98381.13
2022-10-28T15:52:41.387Z,98369.88
2022-10-28T15:55:41.335Z,98382.47
2022-10-28T15:58:36.754Z,98378.03
2022-10-28T16:01:11.837Z,98378.44
2022-10-28T16:03:46.115Z,98371.13
2022-10-28T16:06:27.653Z,98379.78
2022-10-28T16:09:18.771Z,98375.19
2022-10-28T16:11:50.333Z,98377.63
2022-10-28T16:14:34.917Z,98370.31
2022-10-28T16:17:17.252Z,98371.06
2022-10-28T16:19:51.873Z,98368.16
2022-10-28T16:22:21.017Z,98360.25
2022-10-28T16:24:50.166Z,98364.16
2022-10-28T16:27:21.130Z,98365.78
2022-10-28T16:29:50.417Z,98365.13
2022-10-28T16:32:26.903Z,98367.56
2022-10-28T16:34:55.209Z,98372.31
2022-10-28T16:37:25.892Z,98376.41
2022-10-28T16:39:54.547Z,98374.31
2022-10-28T16:42:23.798Z,98376.50
2022-10-28T16:44:52.486Z,98365.50
2022-10-28T16:47:25.611Z,98367.72
2022-10-28T16:49:57.666Z,98359.38
2022-10-28T16:52:28.378Z,98358.09
2022-10-28T16:54:57.311Z,98356.81
2022-10-28T16:57:26.105Z,98359.22
2022-10-28T16:59:54.699Z,98368.72
2022-10-28T17:02:29.751Z,98363.91
2022-10-28T17:04:58.822Z,98371.69
2022-10-28T17:07:27.964Z,98368.56
2022-10-28T17:09:56.949Z,98368.94
2022-10-28T17:12:28.310Z,98371.38
2022-10-28T17:14:56.598Z,98380.84
2022-10-28T17:17:26.343Z,98384.72
2022-10-28T17:19:54.601Z,98373.34
2022-10-28T17:22:22.970Z,98381.13
2022-10-28T17:24:51.281Z,98380.66
2022-10-28T17:27:19.553Z,98385.09
2022-10-28T17:29:48.063Z,98386.09
2022-10-28T17:32:16.621Z,98384.81
2022-10-28T17:34:46.324Z,98389.72
2022-10-28T17:37:14.541Z,98397.31
2022-10-28T17:39:43.380Z,98396.03
2022-10-28T17:42:11.729Z,98394.56
2022-10-28T17:44:40.029Z,98389.72
2022-10-28T17:47:08.346Z,98394.81
2022-10-28T17:49:36.684Z,98403.91
2022-10-28T17:52:06.370Z,98416.88
2022-10-28T17:54:34.636Z,98421.59
2022-10-28T17:57:03.012Z,98414.91
2022-10-28T17:59:31.363Z,98409.72
2022-10-28T18:01:59.716Z,98413.81
2022-10-28T18:04:28.059Z,98405.09
2022-10-28T18:06:58.492Z,98401.28
2022-10-28T18:09:31.678Z,98396.63
2022-10-28T18:12:02.014Z,98406.53
2022-10-28T18:14:30.778Z,98398.03
2022-10-28T18:16:59.078Z,98403.75
2022-10-28T18:19:27.427Z,98408.66
2022-10-28T18:21:55.692Z,98403.63
2022-10-28T18:24:26.017Z,98398.59
2022-10-28T18:26:57.887Z,98395.44
2022-10-28T18:29:26.601Z,98394.13
2022-10-28T18:31:55.141Z,98400.03
2022-10-28T18:34:23.846Z,98406.81
2022-10-28T18:36:52.784Z,98409.00
2022-10-28T18:39:21.131Z,98402.50
2022-10-28T18:41:51.310Z,98399.50
2022-10-28T18:44:24.208Z,98395.88
2022-10-28T18:46:52.538Z,98402.81
2022-10-28T18:49:20.865Z,98402.69
2022-10-28T18:51:49.196Z,98398.69
2022-10-28T18:54:17.699Z,98399.41
2022-10-28T18:56:47.958Z,98397.25
2022-10-28T18:59:16.604Z,98397.28
2022-10-28T19:01:47.178Z,98416.25
2022-10-28T19:04:15.930Z,98419.59
2022-10-28T19:06:44.224Z,98405.88
2022-10-28T19:09:12.493Z,98405.38
2022-10-28T19:11:41.023Z,98408.59
2022-10-28T19:14:10.497Z,98405.41
2022-10-28T19:16:38.772Z,98406.63
2022-10-28T19:19:08.521Z,98398.25
2022-10-28T19:21:36.984Z,98405.16
2022-10-28T19:24:06.316Z,98408.34
2022-10-28T19:26:34.982Z,98413.25
2022-10-28T19:29:05.537Z,98407.38
2022-10-28T19:31:38.740Z,98407.06
2022-10-28T19:34:10.773Z,98414.63
2022-10-28T19:36:39.664Z,98418.47
2022-10-28T19:39:08.026Z,98422.50
2022-10-28T19:41:36.392Z,98404.25
2022-10-28T19:44:05.766Z,98412.66
2022-10-28T19:46:36.320Z,98417.69
2022-10-28T19:49:07.884Z,98410.16
2022-10-28T19:51:38.515Z,98407.81
2022-10-28T19:54:11.240Z,98410.16
2022-10-28T19:56:42.723Z,98407.97
2022-10-28T19:59:11.281Z,98409.19
2022-10-28T20:01:41.512Z,98409.69
2022-10-28T20:04:11.593Z,98414.38
2022-10-28T20:06:41.718Z,98405.97
2022-10-28T20:09:10.509Z,98418.75
2022-10-28T20:11:40.233Z,98410.19
2022-10-28T20:14:11.893Z,98412.34
2022-10-28T20:16:43.222Z,98419.75
2022-10-28T20:19:13.618Z,98408.53
2022-10-28T20:21:42.052Z,98409.72
2022-10-28T20:24:10.463Z,98403.84
2022-10-28T20:26:40.053Z,98413.22
2022-10-28T20:29:09.927Z,98414.38
2022-10-28T20:31:39.834Z,98405.19
2022-10-28T20:34:08.820Z,98399.81
2022-10-28T20:36:41.039Z,98415.25
2022-10-28T20:39:14.457Z,98407.53
2022-10-28T20:41:44.580Z,98417.41
2022-10-28T20:44:13.013Z,98418.59
2022-10-28T20:46:41.843Z,98426.78
2022-10-28T20:49:10.669Z,98417.06
2022-10-28T20:51:40.592Z,98404.00
2022-10-28T20:54:09.153Z,98412.19
2022-10-28T20:56:40.276Z,98415.38
2022-10-28T20:59:08.910Z,98402.84
2022-10-28T21:01:40.016Z,98403.16
2022-10-28T21:04:11.365Z,98410.53
2022-10-28T21:06:40.987Z,98402.81
2022-10-28T21:09:11.715Z,98404.84
2022-10-28T21:11:40.145Z,98403.31
2022-10-28T21:14:08.725Z,98395.59
2022-10-28T21:16:37.150Z,98390.72
2022-10-28T21:19:05.484Z,98395.28
2022-10-28T21:21:33.754Z,98405.44
2022-10-28T21:24:03.747Z,98405.94
2022-10-28T21:26:36.929Z,98417.81
2022-10-28T21:29:05.431Z,98420.66
2022-10-28T21:31:33.738Z,98422.97
2022-10-28T21:34:04.503Z,98415.13
2022-10-28T21:36:35.807Z,98404.75
2022-10-28T21:39:05.539Z,98405.91
2022-10-28T21:41:33.852Z,98390.03
2022-10-28T21:44:06.859Z,98399.41
2022-10-28T21:46:35.140Z,98427.44
2022-10-28T21:49:03.474Z,98394.88
2022-10-28T21:51:31.749Z,98418.09
2022-10-28T21:54:00.053Z,98433.59
2022-10-28T21:56:29.746Z,98403.38
2022-10-28T21:58:57.989Z,98407.88
2022-10-28T22:01:26.305Z,98415.03
2022-10-28T22:03:56.662Z,98419.59
2022-10-28T22:06:25.089Z,98423.22
2022-10-28T22:08:54.597Z,98423.41
2022-10-28T22:11:25.055Z,98429.59
2022-10-28T22:13:59.817Z,98434.94
2022-10-28T22:16:29.749Z,98429.59
2022-10-28T22:19:00.257Z,98436.75
2022-10-28T22:21:31.330Z,98426.91
2022-10-28T22:23:59.733Z,98434.78
2022-10-28T22:26:30.567Z,98432.09
2022-10-28T22:29:00.503Z,98424.06
2022-10-28T22:31:32.208Z,98418.03
2022-10-28T22:34:00.710Z,98423.06
2022-10-28T22:36:30.713Z,98426.59
2022-10-28T22:38:59.487Z,98427.44
2022-10-28T22:41:29.914Z,98416.75
2022-10-28T22:44:01.600Z,98419.41
2022-10-28T22:46:32.320Z,98415.72
2022-10-28T22:49:00.976Z,98414.88
2022-10-28T22:51:29.256Z,98413.91
2022-10-28T22:53:57.766Z,98416.59
2022-10-28T22:56:27.820Z,98409.38
2022-10-28T22:59:00.737Z,98413.06
2022-10-28T23:01:30.339Z,98411.22
2022-10-28T23:03:58.718Z,98404.34
2022-10-28T23:06:28.816Z,98402.69
2022-10-28T23:08:57.709Z,98399.16
2022-10-28T23:11:25.972Z,98401.03
2022-10-28T23:13:55.916Z,98410.03
2022-10-28T23:16:25.983Z,98411.03
2022-10-28T23:18:54.353Z,98415.38
2022-10-28T23:21:24.539Z,98409.38
2022-10-28T23:23:55.351Z,98409.53
2022-10-28T23:26:24.543Z,98419.91
2022-10-28T23:28:54.605Z,98408.53
2022-10-28T23:31:25.381Z,98419.06
2022-10-28T23:33:55.082Z,98415.69
2022-10-28T23:36:24.130Z,98414.88
2022-10-28T23:38:53.928Z,98414.03
2022-10-28T23:41:22.159Z,98400.81
2022-10-28T23:43:50.619Z,98408.84
2022-10-28T23:46:20.460Z,98413.34
2022-10-28T23:48:50.078Z,98409.69
2022-10-28T23:51:19.268Z,98404.34
2022-10-28T23:53:47.516Z,98410.66
2022-10-28T23:56:15.759Z,98417.72
2022-10-28T23:58:44.032Z,98403.66
